STS Fryderyk Chopin — SPS2298 — position and weather

sailwx.info

Track history (hours):
 
Tides and Currents Weather Stations Pressure Air Temp Water Temp Dewpoint Dewpoint Depression Visibility Wind Speed Wind Dir Waves Ship Positions

STS Fryderyk Chopin (Poland)

Ship's website: http://www.fryderykchopin.pl/

Last reported at 2018-Feb-25 04:16 UTC. Time now 2018-Feb-25 05:50 UTC.
Position N 14°41' W 061°12'.

Length 44 m; draft 4.2 m.

Type: Sailing vessel. MMSI: 261000290.

Date/timePositionNaut miles runAvg speedWind from/ knotsBaromVisibWave heightAir tempDewpointWater temp
2018-Feb-25 04:16N 14°41' W 061°12'2 8.3
2018-Feb-25 04:00N 14°39' W 061°10'4 8.4
2018-Feb-25 03:30N 14°36' W 061°07'4 8.2
2018-Feb-25 02:59N 14°34' W 061°04'0 0.0
2018-Feb-24 07:22N 14°33' W 061°03'1 3.6
2018-Feb-24 06:58N 14°33' W 061°05'5 6.1
2018-Feb-24 06:05N 14°29' W 061°09'1 4.9
2018-Feb-24 05:55N 14°29' W 061°09'4 8.5
2018-Feb-24 05:30N 14°25' W 061°09'  
2018-Feb-20 22:10N 14°16' W 061°08'5 7.2
2018-Feb-20 21:25N 14°21' W 061°07'3 7.2
2018-Feb-20 20:57N 14°24' W 061°07'3 7.3
2018-Feb-20 20:30N 14°28' W 061°07'  
2018-Feb-18 10:34N 14°33' W 061°03'1 0.1
2018-Feb-18 00:00N 14°33' W 061°05'4 7.2
2018-Feb-17 23:31N 14°30' W 061°06'4 8.4
2018-Feb-17 23:01N 14°26' W 061°06'5 9.2
2018-Feb-17 22:30N 14°21' W 061°04'17 0.4
2018-Feb-16 04:49N 14°05' W 060°58'0 0.0
2018-Feb-16 04:28N 14°05' W 060°58'  
Track history (hours):
 
Tides and Currents Weather Stations Pressure Air Temp Water Temp Dewpoint Dewpoint Depression Visibility Wind Speed Wind Dir Waves Ship Positions

STS Fryderyk Chopin (Poland)

Ship's website: http://www.fryderykchopin.pl/

Last reported at 2018-Feb-25 04:16 UTC. Time now 2018-Feb-25 05:50 UTC.
Position N 14°41' W 061°12'.

Length 44 m; draft 4.2 m.

Type: Sailing vessel. MMSI: 261000290.

Date/timePositionNaut miles runAvg speedWind from/ knotsBaromVisibWave heightAir tempDewpointWater temp
2018-Feb-25 04:16N 14°41' W 061°12'2 8.3
2018-Feb-25 04:00N 14°39' W 061°10'4 8.4
2018-Feb-25 03:30N 14°36' W 061°07'4 8.2
2018-Feb-25 02:59N 14°34' W 061°04'0 0.0
2018-Feb-24 07:22N 14°33' W 061°03'1 3.6
2018-Feb-24 06:58N 14°33' W 061°05'5 6.1
2018-Feb-24 06:05N 14°29' W 061°09'1 4.9
2018-Feb-24 05:55N 14°29' W 061°09'4 8.5
2018-Feb-24 05:30N 14°25' W 061°09'  
2018-Feb-20 22:10N 14°16' W 061°08'5 7.2
2018-Feb-20 21:25N 14°21' W 061°07'3 7.2
2018-Feb-20 20:57N 14°24' W 061°07'3 7.3
2018-Feb-20 20:30N 14°28' W 061°07'  
2018-Feb-18 10:34N 14°33' W 061°03'1 0.1
2018-Feb-18 00:00N 14°33' W 061°05'4 7.2
2018-Feb-17 23:31N 14°30' W 061°06'4 8.4
2018-Feb-17 23:01N 14°26' W 061°06'5 9.2
2018-Feb-17 22:30N 14°21' W 061°04'17 0.4
2018-Feb-16 04:49N 14°05' W 060°58'0 0.0
2018-Feb-16 04:28N 14°05' W 060°58'  

Dump ship's entire track history